sensor_id;sensor_type;location;lat;lon;timestamp;temperature;humidity
53695;DHT22;39588;51.124;7.190;2023-06-22T00:00:52;21.80;86.00
53695;DHT22;39588;51.124;7.190;2023-06-22T00:03:19;21.70;85.90
53695;DHT22;39588;51.124;7.190;2023-06-22T00:05:46;21.70;85.80
53695;DHT22;39588;51.124;7.190;2023-06-22T00:20:23;21.70;85.50
53695;DHT22;39588;51.124;7.190;2023-06-22T00:22:59;21.70;85.40
53695;DHT22;39588;51.124;7.190;2023-06-22T00:25:25;21.70;85.50
53695;DHT22;39588;51.124;7.190;2023-06-22T00:27:51;21.60;85.10
53695;DHT22;39588;51.124;7.190;2023-06-22T00:30:17;21.70;85.10
53695;DHT22;39588;51.124;7.190;2023-06-22T00:32:44;21.70;85.10
53695;DHT22;39588;51.124;7.190;2023-06-22T00:35:10;21.60;84.90
53695;DHT22;39588;51.124;7.190;2023-06-22T00:37:36;21.60;84.80
53695;DHT22;39588;51.124;7.190;2023-06-22T00:40:03;21.50;84.50
53695;DHT22;39588;51.124;7.190;2023-06-22T00:42:30;21.60;84.70
53695;DHT22;39588;51.124;7.190;2023-06-22T00:44:56;21.60;84.50
53695;DHT22;39588;51.124;7.190;2023-06-22T00:47:21;21.60;84.80
53695;DHT22;39588;51.124;7.190;2023-06-22T00:49:49;21.60;84.70
53695;DHT22;39588;51.124;7.190;2023-06-22T00:52:20;21.60;84.50
53695;DHT22;39588;51.124;7.190;2023-06-22T00:54:51;21.60;84.50
53695;DHT22;39588;51.124;7.190;2023-06-22T00:57:17;23.60;86.20
53695;DHT22;39588;51.124;7.190;2023-06-22T00:59:44;21.60;84.30
53695;DHT22;39588;51.124;7.190;2023-06-22T01:02:11;21.60;84.20
53695;DHT22;39588;51.124;7.190;2023-06-22T01:04:38;21.60;84.30
53695;DHT22;39588;51.124;7.190;2023-06-22T01:07:30;21.60;84.30
53695;DHT22;39588;51.124;7.190;2023-06-22T01:10:14;21.60;84.20
53695;DHT22;39588;51.124;7.190;2023-06-22T01:13:14;21.50;84.10
53695;DHT22;39588;51.124;7.190;2023-06-22T01:15:46;21.60;84.20
53695;DHT22;39588;51.124;7.190;2023-06-22T01:18:17;21.50;84.20
53695;DHT22;39588;51.124;7.190;2023-06-22T01:20:44;21.50;84.30
53695;DHT22;39588;51.124;7.190;2023-06-22T01:26:20;21.40;84.50
53695;DHT22;39588;51.124;7.190;2023-06-22T01:28:53;21.40;84.70
53695;DHT22;39588;51.124;7.190;2023-06-22T01:31:22;21.40;84.70
53695;DHT22;39588;51.124;7.190;2023-06-22T01:33:52;21.40;84.80
53695;DHT22;39588;51.124;7.190;2023-06-22T01:36:19;21.40;84.80
53695;DHT22;39588;51.124;7.190;2023-06-22T01:38:47;21.40;84.90
53695;DHT22;39588;51.124;7.190;2023-06-22T01:41:13;21.40;84.90
53695;DHT22;39588;51.124;7.190;2023-06-22T01:43:40;21.40;85.10
53695;DHT22;39588;51.124;7.190;2023-06-22T01:46:07;21.40;85.20
53695;DHT22;39588;51.124;7.190;2023-06-22T01:50:59;21.40;85.20
53695;DHT22;39588;51.124;7.190;2023-06-22T01:58:20;21.20;85.30
53695;DHT22;39588;51.124;7.190;2023-06-22T02:00:53;21.30;85.50
53695;DHT22;39588;51.124;7.190;2023-06-22T02:03:22;21.20;85.40
53695;DHT22;39588;51.124;7.190;2023-06-22T02:05:56;21.20;85.30
53695;DHT22;39588;51.124;7.190;2023-06-22T02:08:26;21.20;85.30
53695;DHT22;39588;51.124;7.190;2023-06-22T02:10:54;21.20;85.50
53695;DHT22;39588;51.124;7.190;2023-06-22T02:13:21;21.30;85.40
53695;DHT22;39588;51.124;7.190;2023-06-22T02:15:47;21.30;85.40
53695;DHT22;39588;51.124;7.190;2023-06-22T02:18:13;21.20;85.40
53695;DHT22;39588;51.124;7.190;2023-06-22T02:20:40;21.20;85.30
53695;DHT22;39588;51.124;7.190;2023-06-22T02:23:06;21.20;85.40
53695;DHT22;39588;51.124;7.190;2023-06-22T02:25:33;21.20;85.30
53695;DHT22;39588;51.124;7.190;2023-06-22T02:30:25;21.20;85.60
53695;DHT22;39588;51.124;7.190;2023-06-22T02:32:51;21.10;85.60
53695;DHT22;39588;51.124;7.190;2023-06-22T02:35:26;21.10;85.60
53695;DHT22;39588;51.124;7.190;2023-06-22T02:37:52;21.10;85.50
53695;DHT22;39588;51.124;7.190;2023-06-22T02:40:17;21.10;85.70
53695;DHT22;39588;51.124;7.190;2023-06-22T02:42:43;21.10;85.80
53695;DHT22;39588;51.124;7.190;2023-06-22T02:57:19;20.90;86.00
53695;DHT22;39588;51.124;7.190;2023-06-22T02:59:46;21.00;86.20
53695;DHT22;39588;51.124;7.190;2023-06-22T03:21:40;20.80;87.00
53695;DHT22;39588;51.124;7.190;2023-06-22T03:24:06;20.80;87.10
53695;DHT22;39588;51.124;7.190;2023-06-22T03:26:32;20.80;87.30
53695;DHT22;39588;51.124;7.190;2023-06-22T03:28:57;20.90;87.40
53695;DHT22;39588;51.124;7.190;2023-06-22T03:33:50;20.80;87.60
53695;DHT22;39588;51.124;7.190;2023-06-22T03:36:17;20.80;87.70
53695;DHT22;39588;51.124;7.190;2023-06-22T03:38:47;20.80;87.70
53695;DHT22;39588;51.124;7.190;2023-06-22T03:50:59;20.80;88.20
53695;DHT22;39588;51.124;7.190;2023-06-22T03:53:25;20.90;88.30
53695;DHT22;39588;51.124;7.190;2023-06-22T03:55:52;20.90;88.50
53695;DHT22;39588;51.124;7.190;2023-06-22T03:58:19;20.90;88.50
53695;DHT22;39588;51.124;7.190;2023-06-22T04:00:53;21.00;88.70
53695;DHT22;39588;51.124;7.190;2023-06-22T04:03:19;21.00;88.70
53695;DHT22;39588;51.124;7.190;2023-06-22T04:05:45;21.10;88.70
53695;DHT22;39588;51.124;7.190;2023-06-22T04:08:11;21.10;88.80
53695;DHT22;39588;51.124;7.190;2023-06-22T04:10:37;21.20;89.00
53695;DHT22;39588;51.124;7.190;2023-06-22T04:13:03;21.20;89.20
53695;DHT22;39588;51.124;7.190;2023-06-22T04:15:28;21.10;89.70
53695;DHT22;39588;51.124;7.190;2023-06-22T04:17:55;21.20;90.00
53695;DHT22;39588;51.124;7.190;2023-06-22T04:20:21;21.20;90.10
53695;DHT22;39588;51.124;7.190;2023-06-22T04:22:47;21.30;90.30
53695;DHT22;39588;51.124;7.190;2023-06-22T04:25:12;21.30;90.30
53695;DHT22;39588;51.124;7.190;2023-06-22T04:30:07;21.30;90.50
53695;DHT22;39588;51.124;7.190;2023-06-22T04:32:36;21.30;90.70
53695;DHT22;39588;51.124;7.190;2023-06-22T04:35:03;21.30;90.90
53695;DHT22;39588;51.124;7.190;2023-06-22T04:37:30;21.40;91.00
53695;DHT22;39588;51.124;7.190;2023-06-22T04:39:56;21.40;91.10
53695;DHT22;39588;51.124;7.190;2023-06-22T04:42:21;21.40;91.30
53695;DHT22;39588;51.124;7.190;2023-06-22T04:44:47;21.40;91.50
53695;DHT22;39588;51.124;7.190;2023-06-22T04:52:06;21.50;91.90
53695;DHT22;39588;51.124;7.190;2023-06-22T04:57:07;21.60;92.20
53695;DHT22;39588;51.124;7.190;2023-06-22T04:59:36;21.60;92.50
53695;DHT22;39588;51.124;7.190;2023-06-22T05:02:04;21.50;92.80
53695;DHT22;39588;51.124;7.190;2023-06-22T05:04:31;21.40;93.20
53695;DHT22;39588;51.124;7.190;2023-06-22T05:11:50;21.10;95.80
53695;DHT22;39588;51.124;7.190;2023-06-22T05:14:16;20.90;96.80
53695;DHT22;39588;51.124;7.190;2023-06-22T05:16:42;20.90;97.30
53695;DHT22;39588;51.124;7.190;2023-06-22T05:19:09;20.90;97.80
53695;DHT22;39588;51.124;7.190;2023-06-22T05:21:34;20.80;98.10
53695;DHT22;39588;51.124;7.190;2023-06-22T05:24:00;20.80;98.40
53695;DHT22;39588;51.124;7.190;2023-06-22T05:33:47;21.20;98.70
53695;DHT22;39588;51.124;7.190;2023-06-22T05:41:06;21.20;98.60
53695;DHT22;39588;51.124;7.190;2023-06-22T05:43:31;21.10;98.70
53695;DHT22;39588;51.124;7.190;2023-06-22T05:45:58;21.00;98.80
53695;DHT22;39588;51.124;7.190;2023-06-22T05:55:42;20.90;98.90
53695;DHT22;39588;51.124;7.190;2023-06-22T05:58:08;20.90;99.00
53695;DHT22;39588;51.124;7.190;2023-06-22T06:00:34;20.90;98.90
53695;DHT22;39588;51.124;7.190;2023-06-22T06:03:00;20.90;98.80
53695;DHT22;39588;51.124;7.190;2023-06-22T06:05:33;20.90;98.90
53695;DHT22;39588;51.124;7.190;2023-06-22T06:08:03;20.90;98.90
53695;DHT22;39588;51.124;7.190;2023-06-22T06:10:33;21.00;98.90
53695;DHT22;39588;51.124;7.190;2023-06-22T06:12:59;21.10;99.00
53695;DHT22;39588;51.124;7.190;2023-06-22T06:20:21;21.10;99.00
53695;DHT22;39588;51.124;7.190;2023-06-22T06:22:47;21.20;99.00
53695;DHT22;39588;51.124;7.190;2023-06-22T06:25:13;21.20;99.00
53695;DHT22;39588;51.124;7.190;2023-06-22T06:27:45;21.20;99.00
53695;DHT22;39588;51.124;7.190;2023-06-22T06:30:12;21.30;99.20
53695;DHT22;39588;51.124;7.190;2023-06-22T06:32:39;21.30;99.20
53695;DHT22;39588;51.124;7.190;2023-06-22T06:35:07;21.40;99.30
53695;DHT22;39588;51.124;7.190;2023-06-22T06:37:40;21.40;99.10
53695;DHT22;39588;51.124;7.190;2023-06-22T06:40:07;21.50;99.10
53695;DHT22;39588;51.124;7.190;2023-06-22T06:42:40;21.60;98.90
53695;DHT22;39588;51.124;7.190;2023-06-22T06:45:16;21.70;98.90
53695;DHT22;39588;51.124;7.190;2023-06-22T06:47:42;21.80;98.80
53695;DHT22;39588;51.124;7.190;2023-06-22T06:50:08;21.90;98.80
53695;DHT22;39588;51.124;7.190;2023-06-22T06:52:35;21.90;98.60
53695;DHT22;39588;51.124;7.190;2023-06-22T06:55:01;22.00;98.70
53695;DHT22;39588;51.124;7.190;2023-06-22T06:59:56;22.50;98.50
53695;DHT22;39588;51.124;7.190;2023-06-22T07:02:22;22.70;98.20
53695;DHT22;39588;51.124;7.190;2023-06-22T07:04:48;22.90;98.00
53695;DHT22;39588;51.124;7.190;2023-06-22T07:07:14;23.20;98.10
53695;DHT22;39588;51.124;7.190;2023-06-22T07:09:39;23.50;97.80
53695;DHT22;39588;51.124;7.190;2023-06-22T07:12:05;23.80;97.50
53695;DHT22;39588;51.124;7.190;2023-06-22T07:19:27;24.70;96.80
53695;DHT22;39588;51.124;7.190;2023-06-22T07:21:56;24.80;96.50
53695;DHT22;39588;51.124;7.190;2023-06-22T07:24:22;24.80;96.30
53695;DHT22;39588;51.124;7.190;2023-06-22T07:26:48;25.00;96.30
53695;DHT22;39588;51.124;7.190;2023-06-22T07:29:19;25.20;96.30
53695;DHT22;39588;51.124;7.190;2023-06-22T07:34:15;25.30;96.30
53695;DHT22;39588;51.124;7.190;2023-06-22T07:39:06;25.40;95.90
53695;DHT22;39588;51.124;7.190;2023-06-22T07:41:32;25.50;95.80
53695;DHT22;39588;51.124;7.190;2023-06-22T07:46:24;25.40;95.90
53695;DHT22;39588;51.124;7.190;2023-06-22T07:48:49;25.40;95.50
53695;DHT22;39588;51.124;7.190;2023-06-22T07:51:15;25.40;95.60
53695;DHT22;39588;51.124;7.190;2023-06-22T07:53:42;25.40;95.70
53695;DHT22;39588;51.124;7.190;2023-06-22T07:56:10;25.30;95.70
53695;DHT22;39588;51.124;7.190;2023-06-22T07:58:36;25.10;95.80
53695;DHT22;39588;51.124;7.190;2023-06-22T08:01:02;25.00;95.90
53695;DHT22;39588;51.124;7.190;2023-06-22T08:13:13;26.60;94.20
53695;DHT22;39588;51.124;7.190;2023-06-22T08:22:58;27.40;93.20
53695;DHT22;39588;51.124;7.190;2023-06-22T08:25:26;27.70;93.20
53695;DHT22;39588;51.124;7.190;2023-06-22T08:40:07;27.80;91.30
53695;DHT22;39588;51.124;7.190;2023-06-22T08:42:34;27.70;90.40
53695;DHT22;39588;51.124;7.190;2023-06-22T08:45:00;27.60;90.90
53695;DHT22;39588;51.124;7.190;2023-06-22T08:47:27;27.40;90.70
53695;DHT22;39588;51.124;7.190;2023-06-22T08:49:53;27.40;90.30
53695;DHT22;39588;51.124;7.190;2023-06-22T08:52:19;27.50;90.80
53695;DHT22;39588;51.124;7.190;2023-06-22T08:54:46;27.40;91.60
53695;DHT22;39588;51.124;7.190;2023-06-22T08:57:11;27.60;91.50
53695;DHT22;39588;51.124;7.190;2023-06-22T08:59:37;27.90;91.10
53695;DHT22;39588;51.124;7.190;2023-06-22T09:09:21;28.60;90.90
53695;DHT22;39588;51.124;7.190;2023-06-22T09:11:47;28.40;90.90
53695;DHT22;39588;51.124;7.190;2023-06-22T09:14:13;28.40;90.90
53695;DHT22;39588;51.124;7.190;2023-06-22T09:33:42;28.60;90.40
53695;DHT22;39588;51.124;7.190;2023-06-22T09:36:08;28.50;90.20
53695;DHT22;39588;51.124;7.190;2023-06-22T09:38:37;28.50;90.60
53695;DHT22;39588;51.124;7.190;2023-06-22T09:41:03;28.50;90.60
53695;DHT22;39588;51.124;7.190;2023-06-22T09:43:31;28.60;90.10
53695;DHT22;39588;51.124;7.190;2023-06-22T09:45:56;28.60;90.00
53695;DHT22;39588;51.124;7.190;2023-06-22T10:02:58;28.70;89.30
53695;DHT22;39588;51.124;7.190;2023-06-22T10:05:24;28.60;89.40
53695;DHT22;39588;51.124;7.190;2023-06-22T10:07:50;28.90;89.00
53695;DHT22;39588;51.124;7.190;2023-06-22T10:12:55;29.10;87.30
53695;DHT22;39588;51.124;7.190;2023-06-22T10:15:22;28.60;88.20
53695;DHT22;39588;51.124;7.190;2023-06-22T10:17:48;28.50;88.90
53695;DHT22;39588;51.124;7.190;2023-06-22T10:22:41;28.20;89.20
53695;DHT22;39588;51.124;7.190;2023-06-22T10:25:07;28.00;89.30
53695;DHT22;39588;51.124;7.190;2023-06-22T10:27:33;27.70;89.40
53695;DHT22;39588;51.124;7.190;2023-06-22T10:34:51;27.00;90.30
53695;DHT22;39588;51.124;7.190;2023-06-22T10:37:17;26.90;90.60
53695;DHT22;39588;51.124;7.190;2023-06-22T10:39:42;26.80;91.00
53695;DHT22;39588;51.124;7.190;2023-06-22T10:42:08;26.70;91.80
53695;DHT22;39588;51.124;7.190;2023-06-22T10:49:25;26.30;93.30
53695;DHT22;39588;51.124;7.190;2023-06-22T10:51:51;26.20;93.10
53695;DHT22;39588;51.124;7.190;2023-06-22T10:54:16;26.10;93.50
53695;DHT22;39588;51.124;7.190;2023-06-22T10:56:44;26.00;94.70
53695;DHT22;39588;51.124;7.190;2023-06-22T11:04:02;25.30;98.60
53695;DHT22;39588;51.124;7.190;2023-06-22T11:11:20;24.60;99.90
53695;DHT22;39588;51.124;7.190;2023-06-22T11:13:45;24.30;99.90
53695;DHT22;39588;51.124;7.190;2023-06-22T11:16:11;23.90;99.90
53695;DHT22;39588;51.124;7.190;2023-06-22T11:25:55;23.30;99.90
53695;DHT22;39588;51.124;7.190;2023-06-22T11:33:13;22.60;99.90
53695;DHT22;39588;51.124;7.190;2023-06-22T11:35:38;22.40;99.90
53695;DHT22;39588;51.124;7.190;2023-06-22T11:38:04;22.30;99.90
53695;DHT22;39588;51.124;7.190;2023-06-22T11:40:30;22.20;99.90
53695;DHT22;39588;51.124;7.190;2023-06-22T11:42:56;22.10;99.90
53695;DHT22;39588;51.124;7.190;2023-06-22T11:50:14;22.20;99.90
53695;DHT22;39588;51.124;7.190;2023-06-22T11:55:06;22.00;99.90
53695;DHT22;39588;51.124;7.190;2023-06-22T11:57:52;22.00;99.90
53695;DHT22;39588;51.124;7.190;2023-06-22T12:02:45;22.00;99.90
53695;DHT22;39588;51.124;7.190;2023-06-22T12:10:04;22.40;99.90
53695;DHT22;39588;51.124;7.190;2023-06-22T12:12:29;22.40;99.90
53695;DHT22;39588;51.124;7.190;2023-06-22T12:14:55;22.30;99.90
53695;DHT22;39588;51.124;7.190;2023-06-22T12:31:56;23.80;99.90
53695;DHT22;39588;51.124;7.190;2023-06-22T12:36:48;23.50;99.90
53695;DHT22;39588;51.124;7.190;2023-06-22T12:39:15;23.30;99.90
53695;DHT22;39588;51.124;7.190;2023-06-22T12:44:06;23.10;99.90
53695;DHT22;39588;51.124;7.190;2023-06-22T12:46:32;23.00;99.90
53695;DHT22;39588;51.124;7.190;2023-06-22T12:49:03;22.80;99.90
53695;DHT22;39588;51.124;7.190;2023-06-22T12:51:29;22.70;99.90
53695;DHT22;39588;51.124;7.190;2023-06-22T12:53:55;22.90;99.90
53695;DHT22;39588;51.124;7.190;2023-06-22T12:56:21;23.10;99.90
53695;DHT22;39588;51.124;7.190;2023-06-22T13:01:13;23.80;99.90
53695;DHT22;39588;51.124;7.190;2023-06-22T13:03:39;24.00;99.90
53695;DHT22;39588;51.124;7.190;2023-06-22T13:13:25;23.60;99.90
53695;DHT22;39588;51.124;7.190;2023-06-22T13:18:19;23.50;99.90
53695;DHT22;39588;51.124;7.190;2023-06-22T13:20:45;23.60;99.90
53695;DHT22;39588;51.124;7.190;2023-06-22T13:28:03;23.80;99.90
53695;DHT22;39588;51.124;7.190;2023-06-22T13:30:29;23.70;99.90
53695;DHT22;39588;51.124;7.190;2023-06-22T13:32:55;23.50;99.90
53695;DHT22;39588;51.124;7.190;2023-06-22T13:45:07;23.90;99.90
53695;DHT22;39588;51.124;7.190;2023-06-22T13:47:33;24.00;99.90
53695;DHT22;39588;51.124;7.190;2023-06-22T13:49:58;24.10;99.90
53695;DHT22;39588;51.124;7.190;2023-06-22T13:52:24;24.10;99.90
53695;DHT22;39588;51.124;7.190;2023-06-22T13:54:50;24.10;99.90
53695;DHT22;39588;51.124;7.190;2023-06-22T14:04:34;24.30;99.90
53695;DHT22;39588;51.124;7.190;2023-06-22T14:06:59;24.20;99.90
53695;DHT22;39588;51.124;7.190;2023-06-22T14:09:25;24.30;99.90
53695;DHT22;39588;51.124;7.190;2023-06-22T14:11:51;24.40;99.90
53695;DHT22;39588;51.124;7.190;2023-06-22T14:24:00;24.40;99.90
53695;DHT22;39588;51.124;7.190;2023-06-22T14:31:19;24.50;99.90
53695;DHT22;39588;51.124;7.190;2023-06-22T14:33:49;24.50;99.90
53695;DHT22;39588;51.124;7.190;2023-06-22T14:36:16;24.50;99.90
53695;DHT22;39588;51.124;7.190;2023-06-22T14:38:42;24.40;99.90
53695;DHT22;39588;51.124;7.190;2023-06-22T14:41:08;24.40;99.90
53695;DHT22;39588;51.124;7.190;2023-06-22T14:43:34;24.30;99.90
53695;DHT22;39588;51.124;7.190;2023-06-22T14:46:00;24.40;99.90
53695;DHT22;39588;51.124;7.190;2023-06-22T14:48:26;24.40;99.90
53695;DHT22;39588;51.124;7.190;2023-06-22T14:55:45;24.00;99.90
53695;DHT22;39588;51.124;7.190;2023-06-22T14:58:11;23.80;99.90
53695;DHT22;39588;51.124;7.190;2023-06-22T15:00:37;23.60;99.90
53695;DHT22;39588;51.124;7.190;2023-06-22T15:03:04;23.40;99.90
53695;DHT22;39588;51.124;7.190;2023-06-22T15:25:00;21.10;99.90
53695;DHT22;39588;51.124;7.190;2023-06-22T15:29:51;21.00;99.90
53695;DHT22;39588;51.124;7.190;2023-06-22T15:32:17;21.00;99.90
53695;DHT22;39588;51.124;7.190;2023-06-22T15:46:53;20.70;99.90
53695;DHT22;39588;51.124;7.190;2023-06-22T15:49:18;20.60;99.90
53695;DHT22;39588;51.124;7.190;2023-06-22T15:51:44;20.40;99.90
53695;DHT22;39588;51.124;7.190;2023-06-22T15:54:10;20.40;99.90
53695;DHT22;39588;51.124;7.190;2023-06-22T15:59:03;20.30;99.90
53695;DHT22;39588;51.124;7.190;2023-06-22T16:06:21;20.20;99.90
53695;DHT22;39588;51.124;7.190;2023-06-22T16:08:46;20.20;99.90
53695;DHT22;39588;51.124;7.190;2023-06-22T16:11:12;20.10;99.90
53695;DHT22;39588;51.124;7.190;2023-06-22T16:20:56;20.10;99.90
53695;DHT22;39588;51.124;7.190;2023-06-22T16:33:07;20.10;99.90
53695;DHT22;39588;51.124;7.190;2023-06-22T16:35:32;20.10;99.90
53695;DHT22;39588;51.124;7.190;2023-06-22T16:37:58;20.10;99.90
53695;DHT22;39588;51.124;7.190;2023-06-22T16:42:51;20.10;99.90
53695;DHT22;39588;51.124;7.190;2023-06-22T16:47:46;20.10;99.90
53695;DHT22;39588;51.124;7.190;2023-06-22T16:52:37;20.20;99.90
53695;DHT22;39588;51.124;7.190;2023-06-22T16:55:05;20.30;99.90
53695;DHT22;39588;51.124;7.190;2023-06-22T16:59:57;20.50;99.90
53695;DHT22;39588;51.124;7.190;2023-06-22T17:02:24;20.40;99.90
53695;DHT22;39588;51.124;7.190;2023-06-22T17:04:52;20.40;99.90
53695;DHT22;39588;51.124;7.190;2023-06-22T17:07:25;20.40;99.90
53695;DHT22;39588;51.124;7.190;2023-06-22T17:09:51;20.40;99.90
53695;DHT22;39588;51.124;7.190;2023-06-22T17:12:17;20.40;99.90
53695;DHT22;39588;51.124;7.190;2023-06-22T17:14:48;20.40;99.90
53695;DHT22;39588;51.124;7.190;2023-06-22T17:17:17;20.40;99.90
53695;DHT22;39588;51.124;7.190;2023-06-22T17:19:44;20.40;99.90
53695;DHT22;39588;51.124;7.190;2023-06-22T17:24:36;20.40;99.90
53695;DHT22;39588;51.124;7.190;2023-06-22T17:27:03;20.40;99.90
53695;DHT22;39588;51.124;7.190;2023-06-22T17:29:29;20.40;99.90
53695;DHT22;39588;51.124;7.190;2023-06-22T17:32:04;20.30;99.90
53695;DHT22;39588;51.124;7.190;2023-06-22T17:36:58;20.40;99.90
53695;DHT22;39588;51.124;7.190;2023-06-22T17:39:26;20.50;99.90
53695;DHT22;39588;51.124;7.190;2023-06-22T17:41:52;20.60;99.90
53695;DHT22;39588;51.124;7.190;2023-06-22T17:46:45;20.70;99.90
53695;DHT22;39588;51.124;7.190;2023-06-22T17:49:11;20.70;99.90
53695;DHT22;39588;51.124;7.190;2023-06-22T17:51:41;20.80;99.90
53695;DHT22;39588;51.124;7.190;2023-06-22T17:54:07;20.90;99.90
53695;DHT22;39588;51.124;7.190;2023-06-22T17:56:33;20.80;99.90
53695;DHT22;39588;51.124;7.190;2023-06-22T17:59:01;20.90;99.90
53695;DHT22;39588;51.124;7.190;2023-06-22T18:01:29;20.90;99.90
53695;DHT22;39588;51.124;7.190;2023-06-22T18:04:00;20.90;99.90
53695;DHT22;39588;51.124;7.190;2023-06-22T18:06:27;20.90;99.90
53695;DHT22;39588;51.124;7.190;2023-06-22T18:09:00;20.90;99.90
53695;DHT22;39588;51.124;7.190;2023-06-22T18:11:34;20.90;99.90
53695;DHT22;39588;51.124;7.190;2023-06-22T18:14:02;20.90;99.90
53695;DHT22;39588;51.124;7.190;2023-06-22T18:16:30;20.80;99.90
53695;DHT22;39588;51.124;7.190;2023-06-22T18:18:57;20.90;99.90
53695;DHT22;39588;51.124;7.190;2023-06-22T18:21:24;20.90;99.90
53695;DHT22;39588;51.124;7.190;2023-06-22T18:26:21;20.90;99.90
53695;DHT22;39588;51.124;7.190;2023-06-22T18:28:52;20.80;99.90
53695;DHT22;39588;51.124;7.190;2023-06-22T18:31:19;20.80;99.90
53695;DHT22;39588;51.124;7.190;2023-06-22T18:33:49;20.80;99.90
53695;DHT22;39588;51.124;7.190;2023-06-22T18:36:18;20.90;99.90
53695;DHT22;39588;51.124;7.190;2023-06-22T18:38:45;20.90;99.90
53695;DHT22;39588;51.124;7.190;2023-06-22T18:41:32;20.90;99.90
53695;DHT22;39588;51.124;7.190;2023-06-22T18:43:59;20.90;99.90
53695;DHT22;39588;51.124;7.190;2023-06-22T18:46:38;20.80;99.90
53695;DHT22;39588;51.124;7.190;2023-06-22T18:49:11;20.80;99.90
53695;DHT22;39588;51.124;7.190;2023-06-22T18:57:01;20.70;99.90
53695;DHT22;39588;51.124;7.190;2023-06-22T19:08:05;20.60;99.90
53695;DHT22;39588;51.124;7.190;2023-06-22T19:10:42;20.60;99.90
53695;DHT22;39588;51.124;7.190;2023-06-22T19:16:07;20.50;99.90
53695;DHT22;39588;51.124;7.190;2023-06-22T19:18:48;20.50;99.90
53695;DHT22;39588;51.124;7.190;2023-06-22T19:21:24;20.50;99.90
53695;DHT22;39588;51.124;7.190;2023-06-22T19:23:50;19.50;99.90
53695;DHT22;39588;51.124;7.190;2023-06-22T19:26:17;20.50;99.90
53695;DHT22;39588;51.124;7.190;2023-06-22T19:28:54;20.50;99.90
53695;DHT22;39588;51.124;7.190;2023-06-22T19:31:24;20.40;99.90
53695;DHT22;39588;51.124;7.190;2023-06-22T19:34:01;20.40;99.90
53695;DHT22;39588;51.124;7.190;2023-06-22T19:36:31;20.40;99.90
53695;DHT22;39588;51.124;7.190;2023-06-22T19:38:58;20.40;99.90
53695;DHT22;39588;51.124;7.190;2023-06-22T19:43:50;20.40;99.90
53695;DHT22;39588;51.124;7.190;2023-06-22T19:46:16;20.50;99.90
53695;DHT22;39588;51.124;7.190;2023-06-22T19:48:41;20.50;99.90
53695;DHT22;39588;51.124;7.190;2023-06-22T19:53:40;20.40;99.90
53695;DHT22;39588;51.124;7.190;2023-06-22T19:56:06;20.40;99.90
53695;DHT22;39588;51.124;7.190;2023-06-22T19:58:32;20.40;99.90
53695;DHT22;39588;51.124;7.190;2023-06-22T20:00:59;20.40;99.90
53695;DHT22;39588;51.124;7.190;2023-06-22T20:03:34;20.30;99.90
53695;DHT22;39588;51.124;7.190;2023-06-22T20:06:14;20.10;99.90
53695;DHT22;39588;51.124;7.190;2023-06-22T20:08:55;19.80;99.90
53695;DHT22;39588;51.124;7.190;2023-06-22T20:11:28;19.50;99.90
53695;DHT22;39588;51.124;7.190;2023-06-22T20:13:55;19.20;99.90
53695;DHT22;39588;51.124;7.190;2023-06-22T20:16:25;18.80;99.90
53695;DHT22;39588;51.124;7.190;2023-06-22T20:21:32;18.40;99.90
53695;DHT22;39588;51.124;7.190;2023-06-22T20:26:41;18.00;99.90
53695;DHT22;39588;51.124;7.190;2023-06-22T20:34:37;17.70;99.90
53695;DHT22;39588;51.124;7.190;2023-06-22T20:37:03;17.60;99.90
53695;DHT22;39588;51.124;7.190;2023-06-22T20:39:29;17.50;99.90
53695;DHT22;39588;51.124;7.190;2023-06-22T20:41:55;17.50;99.90
53695;DHT22;39588;51.124;7.190;2023-06-22T20:51:43;17.30;99.90
53695;DHT22;39588;51.124;7.190;2023-06-22T20:59:01;17.20;99.90
53695;DHT22;39588;51.124;7.190;2023-06-22T21:04:01;17.20;99.90
53695;DHT22;39588;51.124;7.190;2023-06-22T21:06:27;17.20;99.90
53695;DHT22;39588;51.124;7.190;2023-06-22T21:08:54;17.10;99.90
53695;DHT22;39588;51.124;7.190;2023-06-22T21:11:20;17.10;99.90
53695;DHT22;39588;51.124;7.190;2023-06-22T21:13:46;17.10;99.90
53695;DHT22;39588;51.124;7.190;2023-06-22T21:38:06;16.60;99.90
53695;DHT22;39588;51.124;7.190;2023-06-22T21:40:31;16.50;99.90
53695;DHT22;39588;51.124;7.190;2023-06-22T21:42:57;16.50;99.90
53695;DHT22;39588;51.124;7.190;2023-06-22T21:45:24;16.50;99.90
53695;DHT22;39588;51.124;7.190;2023-06-22T21:47:49;16.40;99.90
53695;DHT22;39588;51.124;7.190;2023-06-22T21:50:15;16.40;99.90
53695;DHT22;39588;51.124;7.190;2023-06-22T21:52:41;16.40;99.90
53695;DHT22;39588;51.124;7.190;2023-06-22T21:55:07;16.40;99.90
53695;DHT22;39588;51.124;7.190;2023-06-22T22:04:51;16.30;99.90
53695;DHT22;39588;51.124;7.190;2023-06-22T22:07:18;16.30;99.90
53695;DHT22;39588;51.124;7.190;2023-06-22T22:09:43;16.30;99.90
53695;DHT22;39588;51.124;7.190;2023-06-22T22:12:09;16.30;99.90
53695;DHT22;39588;51.124;7.190;2023-06-22T22:21:53;16.10;99.90
53695;DHT22;39588;51.124;7.190;2023-06-22T22:24:18;16.10;99.90
53695;DHT22;39588;51.124;7.190;2023-06-22T22:29:10;16.10;99.90
53695;DHT22;39588;51.124;7.190;2023-06-22T22:34:05;16.00;99.90
53695;DHT22;39588;51.124;7.190;2023-06-22T22:36:32;16.00;99.90
53695;DHT22;39588;51.124;7.190;2023-06-22T22:53:34;15.90;99.90
53695;DHT22;39588;51.124;7.190;2023-06-22T22:56:02;15.80;99.90
53695;DHT22;39588;51.124;7.190;2023-06-22T22:58:28;15.80;99.90
53695;DHT22;39588;51.124;7.190;2023-06-22T23:00:53;15.80;99.90
53695;DHT22;39588;51.124;7.190;2023-06-22T23:03:19;15.80;99.90
53695;DHT22;39588;51.124;7.190;2023-06-22T23:05:45;15.80;99.90
53695;DHT22;39588;51.124;7.190;2023-06-22T23:10:38;15.80;99.90
53695;DHT22;39588;51.124;7.190;2023-06-22T23:13:04;15.80;99.90
53695;DHT22;39588;51.124;7.190;2023-06-22T23:15:31;15.80;99.90
53695;DHT22;39588;51.124;7.190;2023-06-22T23:17:56;15.80;99.90
53695;DHT22;39588;51.124;7.190;2023-06-22T23:20:22;15.70;99.90
53695;DHT22;39588;51.124;7.190;2023-06-22T23:22:53;15.80;99.90
53695;DHT22;39588;51.124;7.190;2023-06-22T23:27:48;15.70;99.90
53695;DHT22;39588;51.124;7.190;2023-06-22T23:30:14;15.70;99.90
53695;DHT22;39588;51.124;7.190;2023-06-22T23:35:06;15.70;99.90
53695;DHT22;39588;51.124;7.190;2023-06-22T23:37:36;15.70;99.90
53695;DHT22;39588;51.124;7.190;2023-06-22T23:40:03;15.60;99.90
53695;DHT22;39588;51.124;7.190;2023-06-22T23:49:55;15.70;99.90
53695;DHT22;39588;51.124;7.190;2023-06-22T23:52:21;15.80;99.90
53695;DHT22;39588;51.124;7.190;2023-06-22T23:54:47;15.70;99.90
